createdAt,value
2022-09-28T00:01:17.725Z,64.30
2022-09-28T00:03:46.155Z,64.45
2022-09-28T00:06:16.278Z,64.31
2022-09-28T00:08:44.776Z,64.28
2022-09-28T00:11:15.683Z,64.59
2022-09-28T00:13:45.018Z,64.61
2022-09-28T00:16:15.127Z,64.32
2022-09-28T00:18:43.643Z,64.35
2022-09-28T00:21:14.164Z,64.73
2022-09-28T00:23:56.599Z,64.83
2022-09-28T00:26:27.271Z,64.74
2022-09-28T00:28:56.477Z,64.34
2022-09-28T00:31:25.237Z,64.41
2022-09-28T00:33:55.855Z,64.72
2022-09-28T00:36:24.722Z,64.45
2022-09-28T00:38:52.738Z,64.58
2022-09-28T00:41:20.830Z,65.15
2022-09-28T00:43:50.562Z,65.33
2022-09-28T00:46:21.730Z,65.53
2022-09-28T00:48:56.390Z,65.56
2022-09-28T00:51:26.688Z,66.12
2022-09-28T00:53:56.764Z,65.90
2022-09-28T00:56:29.651Z,66.43
2022-09-28T00:59:00.530Z,66.09
2022-09-28T01:01:29.602Z,65.93
2022-09-28T01:03:59.916Z,66.16
2022-09-28T01:06:33.632Z,65.51
2022-09-28T01:09:05.484Z,65.84
2022-09-28T01:11:35.256Z,65.37
2022-09-28T01:14:08.054Z,65.80
2022-09-28T01:16:43.204Z,65.96
2022-09-28T01:19:39.075Z,65.42
2022-09-28T01:22:26.445Z,65.87
2022-09-28T01:25:00.555Z,65.20
2022-09-28T01:27:34.665Z,65.65
2022-09-28T01:30:07.998Z,65.83
2022-09-28T01:32:43.525Z,65.96
2022-09-28T01:35:16.289Z,65.32
2022-09-28T01:37:52.456Z,65.75
2022-09-28T01:40:23.329Z,65.19
2022-09-28T01:42:59.958Z,65.40
2022-09-28T01:45:31.570Z,65.01
2022-09-28T01:48:03.886Z,65.10
2022-09-28T01:50:37.541Z,65.57
2022-09-28T01:53:13.004Z,65.61
2022-09-28T01:55:45.417Z,65.62
2022-09-28T01:58:20.388Z,65.61
2022-09-28T02:00:52.996Z,65.92
2022-09-28T02:03:25.937Z,66.00
2022-09-28T02:05:58.948Z,65.99
2022-09-28T02:08:32.781Z,66.25
2022-09-28T02:11:06.294Z,66.46
2022-09-28T02:13:38.903Z,65.95
2022-09-28T02:16:14.988Z,65.81
2022-09-28T02:18:43.363Z,65.70
2022-09-28T02:21:16.816Z,66.52
2022-09-28T02:23:53.901Z,66.21
2022-09-28T02:26:26.197Z,66.34
2022-09-28T02:28:55.663Z,65.91
2022-09-28T02:31:23.854Z,65.91
2022-09-28T02:33:54.466Z,66.11
2022-09-28T02:36:23.751Z,65.75
2022-09-28T02:38:52.563Z,65.99
2022-09-28T02:41:32.496Z,66.02
2022-09-28T02:44:14.567Z,65.64
2022-09-28T02:46:51.629Z,66.01
2022-09-28T02:49:29.585Z,65.91
2022-09-28T02:52:14.914Z,65.92
2022-09-28T02:55:01.297Z,65.94
2022-09-28T02:57:42.275Z,66.30
2022-09-28T03:00:16.568Z,66.05
2022-09-28T03:02:56.688Z,65.90
2022-09-28T03:05:32.929Z,65.83
2022-09-28T03:08:03.489Z,66.07
2022-09-28T03:10:39.013Z,66.28
2022-09-28T03:13:09.049Z,66.27
2022-09-28T03:15:38.556Z,65.58
2022-09-28T03:18:06.282Z,65.82
2022-09-28T03:20:34.948Z,66.01
2022-09-28T03:25:52.713Z,65.64
2022-09-28T03:28:21.601Z,65.19
2022-09-28T03:33:19.777Z,65.54
2022-09-28T03:35:48.208Z,65.41
2022-09-28T03:38:16.154Z,65.79
2022-09-28T03:40:44.510Z,65.13
2022-09-28T03:43:12.751Z,65.11
2022-09-28T03:45:40.468Z,65.69
2022-09-28T03:48:09.932Z,65.58
2022-09-28T03:50:37.623Z,64.99
2022-09-28T03:53:05.937Z,65.33
2022-09-28T03:55:34.023Z,64.71
2022-09-28T03:58:02.083Z,64.80
2022-09-28T04:00:29.896Z,64.52
2022-09-28T04:02:58.074Z,64.80
2022-09-28T04:05:27.078Z,64.28
2022-09-28T04:07:58.193Z,63.94
2022-09-28T04:10:26.590Z,64.25
2022-09-28T04:12:55.659Z,64.38
2022-09-28T04:15:24.277Z,63.67
2022-09-28T04:17:52.706Z,63.93
2022-09-28T04:20:20.457Z,63.93
2022-09-28T04:22:49.938Z,63.50
2022-09-28T04:25:18.241Z,63.61
2022-09-28T04:28:03.863Z,64.11
2022-09-28T04:30:32.310Z,63.84
2022-09-28T04:32:59.978Z,64.20
2022-09-28T04:35:28.134Z,63.89
2022-09-28T04:37:57.753Z,64.05
2022-09-28T04:40:25.461Z,64.16
2022-09-28T04:42:56.694Z,64.24
2022-09-28T04:45:26.470Z,64.18
2022-09-28T04:47:54.592Z,64.33
2022-09-28T04:50:22.550Z,64.38
2022-09-28T04:52:50.685Z,63.99
2022-09-28T04:55:20.610Z,64.60
2022-09-28T04:57:48.715Z,64.09
2022-09-28T05:00:17.656Z,64.35
2022-09-28T05:02:45.676Z,64.39
2022-09-28T05:05:13.823Z,64.51
2022-09-28T05:07:42.685Z,64.49
2022-09-28T05:10:10.517Z,64.75
2022-09-28T05:12:39.957Z,64.48
2022-09-28T05:15:08.298Z,64.47
2022-09-28T05:17:36.004Z,64.49
2022-09-28T05:20:04.406Z,64.53
2022-09-28T05:22:32.034Z,64.37
2022-09-28T05:25:00.330Z,64.19
2022-09-28T05:27:28.429Z,64.33
2022-09-28T05:29:57.429Z,63.88
2022-09-28T05:32:25.172Z,63.94
2022-09-28T05:34:53.238Z,63.93
2022-09-28T05:37:20.869Z,64.07
2022-09-28T05:39:48.509Z,64.23
2022-09-28T05:42:16.615Z,63.88
2022-09-28T05:44:44.454Z,63.80
2022-09-28T05:47:13.539Z,63.28
2022-09-28T05:49:41.605Z,63.67
2022-09-28T05:52:09.218Z,63.48
2022-09-28T05:54:36.861Z,64.05
2022-09-28T05:57:06.842Z,64.02
2022-09-28T05:59:36.116Z,64.22
2022-09-28T06:02:04.900Z,64.02
2022-09-28T06:04:34.527Z,64.04
2022-09-28T06:07:02.171Z,64.09
2022-09-28T06:09:29.953Z,64.55
2022-09-28T06:12:00.192Z,64.79
2022-09-28T06:14:27.925Z,64.85
2022-09-28T06:16:55.624Z,64.99
2022-09-28T06:19:23.880Z,65.58
2022-09-28T06:21:53.179Z,65.68
2022-09-28T06:24:20.783Z,65.63
2022-09-28T06:26:48.478Z,65.87
2022-09-28T06:29:19.746Z,65.80
2022-09-28T06:31:48.213Z,65.96
2022-09-28T06:34:15.985Z,66.41
2022-09-28T06:36:44.026Z,66.12
2022-09-28T06:39:13.046Z,66.82
2022-09-28T06:41:40.974Z,66.85
2022-09-28T06:44:08.679Z,67.16
2022-09-28T06:46:38.127Z,67.01
2022-09-28T06:49:06.245Z,66.82
2022-09-28T06:51:33.873Z,66.88
2022-09-28T06:54:01.868Z,65.97
2022-09-28T06:56:33.030Z,66.43
2022-09-28T06:59:00.943Z,66.35
2022-09-28T07:01:28.894Z,66.10
2022-09-28T07:03:56.793Z,66.05
2022-09-28T07:06:26.802Z,66.06
2022-09-28T07:09:03.698Z,65.99
2022-09-28T07:11:41.646Z,66.30
2022-09-28T07:14:14.700Z,65.83
2022-09-28T07:17:10.207Z,65.68
2022-09-28T07:19:36.657Z,64.92
2022-09-28T07:22:05.670Z,64.79
2022-09-28T07:24:33.470Z,65.15
2022-09-28T07:27:05.310Z,64.77
2022-09-28T07:29:32.978Z,65.40
2022-09-28T07:32:00.647Z,64.97
2022-09-28T07:34:28.580Z,64.72
2022-09-28T07:36:59.604Z,65.46
2022-09-28T07:39:27.286Z,64.74
2022-09-28T07:41:56.677Z,64.85
2022-09-28T07:44:29.689Z,64.64
2022-09-28T07:46:57.762Z,64.37
2022-09-28T07:49:25.404Z,64.23
2022-09-28T07:51:53.773Z,64.66
2022-09-28T07:54:21.841Z,65.28
2022-09-28T07:56:49.812Z,63.84
2022-09-28T07:59:19.160Z,64.26
2022-09-28T08:01:49.572Z,63.95
2022-09-28T08:04:17.563Z,63.99
2022-09-28T08:06:46.112Z,63.36
2022-09-28T08:09:14.294Z,63.62
2022-09-28T08:11:44.365Z,62.42
2022-09-28T08:14:12.316Z,62.42
2022-09-28T08:16:40.408Z,63.11
2022-09-28T08:19:10.460Z,63.55
2022-09-28T08:21:46.324Z,63.19
2022-09-28T08:24:16.669Z,62.37
2022-09-28T08:26:45.178Z,62.48
2022-09-28T08:29:16.401Z,62.13
2022-09-28T08:31:44.598Z,62.32
2022-09-28T08:34:14.096Z,62.12
2022-09-28T08:36:42.425Z,62.54
2022-09-28T08:39:10.569Z,62.67
2022-09-28T08:41:50.710Z,62.62
2022-09-28T08:44:24.253Z,62.15
2022-09-28T08:46:57.667Z,62.66
2022-09-28T08:49:31.457Z,64.48
2022-09-28T08:52:02.586Z,63.26
2022-09-28T08:54:39.085Z,62.51
2022-09-28T08:57:12.639Z,62.97
2022-09-28T08:59:49.711Z,62.56
2022-09-28T09:05:19.390Z,60.98
2022-09-28T09:08:02.667Z,59.95
2022-09-28T09:11:01.633Z,60.11
2022-09-28T09:13:54.822Z,59.48
2022-09-28T09:16:36.463Z,60.13
2022-09-28T09:19:16.921Z,59.01
2022-09-28T09:21:53.031Z,59.40
2022-09-28T09:24:27.431Z,58.58
2022-09-28T09:27:19.769Z,59.25
2022-09-28T09:30:03.246Z,58.71
2022-09-28T09:32:55.447Z,58.12
2022-09-28T09:36:02.962Z,58.27
2022-09-28T09:38:46.811Z,58.64
2022-09-28T09:41:24.855Z,58.80
2022-09-28T09:44:16.349Z,58.66
2022-09-28T09:46:49.547Z,58.45
2022-09-28T09:49:22.622Z,58.35
2022-09-28T09:51:57.843Z,58.55
2022-09-28T09:54:34.977Z,56.97
2022-09-28T09:57:08.490Z,56.75
2022-09-28T09:59:41.456Z,56.33
2022-09-28T10:02:21.636Z,56.05
2022-09-28T10:04:55.807Z,56.01
2022-09-28T10:07:26.553Z,56.18
2022-09-28T10:10:00.011Z,56.09
2022-09-28T10:12:28.214Z,56.14
2022-09-28T10:14:56.577Z,55.71
2022-09-28T10:17:27.789Z,56.28
2022-09-28T10:19:57.101Z,55.23
2022-09-28T10:22:28.899Z,54.63
2022-09-28T10:24:58.790Z,55.12
2022-09-28T10:27:31.304Z,54.39
2022-09-28T10:30:03.164Z,54.27
2022-09-28T10:32:39.445Z,54.55
2022-09-28T10:35:21.756Z,54.77
2022-09-28T10:37:54.718Z,54.99
2022-09-28T10:40:34.632Z,54.79
2022-09-28T10:43:08.947Z,54.51
2022-09-28T10:45:38.372Z,54.38
2022-09-28T10:48:16.495Z,54.07
2022-09-28T10:50:44.553Z,54.83
2022-09-28T10:53:19.745Z,56.50
2022-09-28T10:56:00.625Z,57.00
2022-09-28T10:58:33.349Z,56.36
2022-09-28T11:01:04.551Z,55.59
2022-09-28T11:03:32.770Z,54.97
2022-09-28T11:06:03.481Z,55.21
2022-09-28T11:08:37.253Z,54.36
2022-09-28T11:11:10.632Z,55.08
2022-09-28T11:13:48.220Z,53.67
2022-09-28T11:16:37.702Z,51.99
2022-09-28T11:19:07.489Z,52.21
2022-09-28T11:21:43.983Z,51.93
2022-09-28T11:24:21.525Z,52.30
2022-09-28T11:26:53.654Z,50.60
2022-09-28T11:29:26.715Z,51.30
2022-09-28T11:32:00.583Z,50.82
2022-09-28T11:34:57.523Z,50.28
2022-09-28T11:37:51.786Z,49.38
2022-09-28T11:40:30.545Z,49.08
2022-09-28T11:43:13.334Z,49.67
2022-09-28T11:45:52.459Z,49.16
2022-09-28T11:48:26.169Z,49.28
2022-09-28T11:50:59.112Z,49.60
2022-09-28T11:53:35.116Z,49.88
2022-09-28T11:56:13.333Z,50.42
2022-09-28T11:58:46.289Z,50.65
2022-09-28T12:01:25.143Z,50.74
2022-09-28T12:03:57.292Z,50.50
2022-09-28T12:06:32.358Z,49.47
2022-09-28T12:09:10.135Z,49.64
2022-09-28T12:11:43.327Z,49.88
2022-09-28T12:14:21.583Z,49.71
2022-09-28T12:17:10.753Z,49.56
2022-09-28T12:19:45.593Z,49.51
2022-09-28T12:22:19.247Z,49.48
2022-09-28T12:24:50.623Z,49.52
2022-09-28T12:27:25.910Z,50.03
2022-09-28T12:30:01.059Z,49.20
2022-09-28T12:32:35.864Z,49.21
2022-09-28T12:35:04.495Z,49.50
2022-09-28T12:37:45.179Z,48.88
2022-09-28T12:40:38.268Z,49.39
2022-09-28T12:43:34.070Z,47.80
2022-09-28T12:46:46.209Z,48.38
2022-09-28T12:50:27.299Z,46.84
2022-09-28T12:52:29.531Z,47.48
2022-09-28T12:55:39.977Z,48.29
2022-09-28T12:58:23.378Z,49.12
2022-09-28T13:01:02.353Z,49.43
2022-09-28T13:03:54.033Z,48.90
2022-09-28T13:06:34.161Z,49.19
2022-09-28T13:09:22.334Z,50.02
2022-09-28T13:12:08.534Z,50.20
2022-09-28T13:15:14.124Z,50.33
2022-09-28T13:17:50.103Z,50.75
2022-09-28T13:20:40.784Z,50.17
2022-09-28T13:23:21.118Z,49.36
2022-09-28T13:25:59.076Z,49.89
2022-09-28T13:28:30.049Z,49.93
2022-09-28T13:31:00.274Z,49.35
2022-09-28T13:33:37.532Z,48.90
2022-09-28T13:36:38.756Z,47.28
2022-09-28T13:39:39.978Z,47.73
2022-09-28T13:42:11.357Z,47.01
2022-09-28T13:45:11.978Z,46.73
2022-09-28T13:47:57.159Z,46.39
2022-09-28T13:50:34.471Z,47.29
2022-09-28T13:53:17.171Z,47.34
2022-09-28T13:55:57.519Z,47.53
2022-09-28T13:58:29.856Z,48.56
2022-09-28T14:01:04.725Z,48.79
2022-09-28T14:03:46.429Z,48.70
2022-09-28T14:06:27.415Z,49.06
2022-09-28T14:09:24.641Z,48.47
2022-09-28T14:11:58.249Z,49.12
2022-09-28T14:14:49.719Z,48.90
2022-09-28T14:17:54.127Z,49.16
2022-09-28T14:20:26.778Z,49.26
2022-09-28T14:23:22.622Z,49.04
2022-09-28T14:26:07.770Z,49.01
2022-09-28T14:28:49.568Z,47.87
2022-09-28T14:31:26.522Z,48.94
2022-09-28T14:34:01.085Z,48.59
2022-09-28T14:36:56.758Z,48.53
2022-09-28T14:39:47.969Z,48.46
2022-09-28T14:42:21.834Z,48.66
2022-09-28T14:45:21.841Z,48.28
2022-09-28T14:48:20.797Z,48.70
2022-09-28T14:50:50.009Z,49.81
2022-09-28T14:53:26.380Z,50.32
2022-09-28T14:55:58.001Z,50.82
2022-09-28T14:58:30.350Z,50.38
2022-09-28T15:01:04.236Z,50.87
2022-09-28T15:03:36.100Z,51.02
2022-09-28T15:06:04.087Z,51.51
2022-09-28T15:08:40.251Z,51.17
2022-09-28T15:11:14.879Z,51.35
2022-09-28T15:13:45.075Z,50.71
2022-09-28T15:16:15.086Z,50.42
2022-09-28T15:19:05.828Z,50.37
2022-09-28T15:21:38.358Z,50.61
2022-09-28T15:24:28.559Z,50.81
2022-09-28T15:26:57.212Z,50.97
2022-09-28T15:29:31.654Z,51.25
2022-09-28T15:32:00.121Z,50.14
2022-09-28T15:34:47.906Z,49.22
2022-09-28T15:37:19.002Z,48.17
2022-09-28T15:39:48.553Z,49.04
2022-09-28T15:42:18.526Z,48.05
2022-09-28T15:45:06.784Z,48.02
2022-09-28T15:47:35.304Z,48.05
2022-09-28T15:50:05.594Z,48.11
2022-09-28T15:52:38.838Z,47.85
2022-09-28T15:55:20.022Z,47.92
2022-09-28T15:57:48.866Z,48.29
2022-09-28T16:00:29.604Z,48.34
2022-09-28T16:03:04.000Z,47.46
2022-09-28T16:05:36.464Z,47.39
2022-09-28T16:08:05.975Z,48.04
2022-09-28T16:10:35.995Z,48.49
2022-09-28T16:13:17.468Z,48.08
2022-09-28T16:15:47.164Z,48.73
2022-09-28T16:18:24.008Z,48.75
2022-09-28T16:20:53.981Z,48.84
2022-09-28T16:23:27.011Z,48.41
2022-09-28T16:25:59.191Z,47.83
2022-09-28T16:28:49.459Z,48.13
2022-09-28T16:31:28.469Z,48.13
2022-09-28T16:33:59.539Z,47.93
2022-09-28T16:36:29.898Z,48.13
2022-09-28T16:38:57.788Z,48.08
2022-09-28T16:41:29.776Z,48.41
2022-09-28T16:44:01.229Z,48.44
2022-09-28T16:46:36.383Z,48.97
2022-09-28T16:49:06.817Z,49.30
2022-09-28T16:51:34.943Z,49.73
2022-09-28T16:54:32.757Z,50.02
2022-09-28T16:57:01.089Z,49.91
2022-09-28T16:59:29.601Z,50.43
2022-09-28T17:01:59.667Z,50.37
2022-09-28T17:04:28.149Z,50.96
2022-09-28T17:06:58.395Z,51.44
2022-09-28T17:09:26.715Z,51.46
2022-09-28T17:11:57.587Z,52.02
2022-09-28T17:14:25.616Z,51.72
2022-09-28T17:17:08.044Z,52.20
2022-09-28T17:19:44.593Z,52.26
2022-09-28T17:22:14.613Z,52.52
2022-09-28T17:24:42.836Z,52.73
2022-09-28T17:27:17.378Z,53.22
2022-09-28T17:29:45.870Z,53.03
2022-09-28T17:32:19.910Z,52.75
2022-09-28T17:35:00.781Z,53.50
2022-09-28T17:37:38.322Z,52.64
2022-09-28T17:40:18.441Z,52.52
2022-09-28T17:42:48.192Z,53.20
2022-09-28T17:45:17.195Z,53.83
2022-09-28T17:47:46.225Z,54.09
2022-09-28T17:50:23.147Z,54.33
2022-09-28T17:52:54.957Z,54.56
2022-09-28T17:55:29.147Z,54.25
2022-09-28T17:57:58.108Z,54.25
2022-09-28T18:00:27.979Z,54.65
2022-09-28T18:02:57.099Z,54.47
2022-09-28T18:05:27.821Z,54.67
2022-09-28T18:07:58.424Z,55.06
2022-09-28T18:10:27.628Z,54.67
2022-09-28T18:12:55.746Z,55.00
2022-09-28T18:15:24.199Z,54.79
2022-09-28T18:17:52.380Z,54.88
2022-09-28T18:20:21.248Z,54.87
2022-09-28T18:22:50.825Z,54.90
2022-09-28T18:25:19.016Z,55.00
2022-09-28T18:27:47.571Z,55.49
2022-09-28T18:30:15.929Z,54.94
2022-09-28T18:32:44.492Z,55.53
2022-09-28T18:35:12.643Z,55.52
2022-09-28T18:37:41.460Z,55.45
2022-09-28T18:40:12.866Z,54.93
2022-09-28T18:42:41.292Z,55.14
2022-09-28T18:45:12.368Z,55.29
2022-09-28T18:47:41.230Z,55.51
2022-09-28T18:50:11.701Z,55.29
2022-09-28T18:52:41.165Z,55.75
2022-09-28T18:55:11.858Z,55.36
2022-09-28T18:57:41.853Z,55.72
2022-09-28T19:00:12.570Z,55.79
2022-09-28T19:02:40.717Z,55.75
2022-09-28T19:05:09.694Z,55.70
2022-09-28T19:07:37.606Z,55.84
2022-09-28T19:10:06.859Z,55.17
2022-09-28T19:12:36.117Z,55.81
2022-09-28T19:15:04.076Z,55.49
2022-09-28T19:17:34.492Z,55.39
2022-09-28T19:20:03.099Z,55.42
2022-09-28T19:22:31.904Z,55.76
2022-09-28T19:25:00.365Z,56.07
2022-09-28T19:27:28.696Z,55.67
2022-09-28T19:29:58.915Z,55.25
2022-09-28T19:32:26.980Z,56.10
2022-09-28T19:34:55.686Z,56.16
2022-09-28T19:37:23.914Z,55.51
2022-09-28T19:39:52.584Z,55.60
2022-09-28T19:42:20.630Z,55.71
2022-09-28T19:44:48.688Z,55.82
2022-09-28T19:47:22.315Z,55.82
2022-09-28T19:49:50.439Z,56.08
2022-09-28T19:52:18.592Z,56.15
2022-09-28T19:54:55.886Z,55.45
2022-09-28T19:57:26.094Z,55.46
2022-09-28T19:59:57.868Z,55.34
2022-09-28T20:02:31.144Z,55.49
2022-09-28T20:04:59.661Z,55.65
2022-09-28T20:07:28.239Z,55.16
2022-09-28T20:09:56.505Z,55.71
2022-09-28T20:12:24.834Z,55.73
2022-09-28T20:14:53.292Z,55.64
2022-09-28T20:17:21.902Z,55.34
2022-09-28T20:19:52.492Z,55.33
2022-09-28T20:22:21.828Z,55.96
2022-09-28T20:24:50.267Z,55.80
2022-09-28T20:27:20.352Z,56.13
2022-09-28T20:29:50.714Z,55.95
2022-09-28T20:32:19.270Z,56.28
2022-09-28T20:34:47.719Z,55.97
2022-09-28T20:37:19.649Z,56.07
2022-09-28T20:39:48.302Z,55.93
2022-09-28T20:42:16.796Z,55.82
2022-09-28T20:44:45.768Z,56.27
2022-09-28T20:47:13.916Z,56.11
2022-09-28T20:49:42.139Z,55.69
2022-09-28T20:52:12.311Z,56.15
2022-09-28T20:54:42.203Z,56.09
2022-09-28T20:57:18.731Z,56.12
2022-09-28T20:59:50.994Z,55.71
2022-09-28T21:02:23.522Z,56.18
2022-09-28T21:04:51.764Z,55.50
2022-09-28T21:07:20.251Z,55.84
2022-09-28T21:09:51.113Z,56.07
2022-09-28T21:12:19.215Z,55.80
2022-09-28T21:14:47.938Z,55.97
2022-09-28T21:17:16.029Z,55.92
2022-09-28T21:19:44.187Z,56.22
2022-09-28T21:22:12.727Z,56.37
2022-09-28T21:24:40.891Z,55.80
2022-09-28T21:27:10.663Z,55.76
2022-09-28T21:29:38.660Z,55.64
2022-09-28T21:32:06.694Z,55.92
2022-09-28T21:34:36.505Z,55.97
2022-09-28T21:37:04.511Z,56.38
2022-09-28T21:39:33.203Z,56.11
2022-09-28T21:42:01.420Z,56.33
2022-09-28T21:44:31.254Z,55.95
2022-09-28T21:46:59.995Z,56.20
2022-09-28T21:49:28.366Z,56.67
2022-09-28T21:51:57.246Z,56.15
2022-09-28T21:54:25.428Z,56.16
2022-09-28T21:56:53.467Z,56.38
2022-09-28T21:59:21.893Z,56.54
2022-09-28T22:01:51.948Z,56.64
2022-09-28T22:04:20.731Z,56.09
2022-09-28T22:06:49.006Z,56.53
2022-09-28T22:09:17.108Z,56.46
2022-09-28T22:11:45.644Z,56.79
2022-09-28T22:14:13.702Z,56.59
2022-09-28T22:16:42.393Z,56.31
2022-09-28T22:19:12.007Z,56.63
2022-09-28T22:21:40.236Z,56.40
2022-09-28T22:24:09.328Z,56.76
2022-09-28T22:26:39.526Z,56.77
2022-09-28T22:29:10.024Z,56.62
2022-09-28T22:31:40.236Z,56.50
2022-09-28T22:34:10.125Z,57.08
2022-09-28T22:36:39.627Z,56.53
2022-09-28T22:39:08.370Z,56.74
2022-09-28T22:41:36.941Z,56.67
2022-09-28T22:44:05.246Z,56.67
2022-09-28T22:46:33.471Z,56.54
2022-09-28T22:49:02.403Z,56.43
2022-09-28T22:51:31.480Z,56.81
2022-09-28T22:54:01.826Z,57.27
2022-09-28T22:56:30.330Z,56.73
2022-09-28T22:58:58.930Z,56.62
2022-09-28T23:01:29.153Z,56.83
2022-09-28T23:03:58.417Z,57.07
2022-09-28T23:06:29.679Z,57.14
2022-09-28T23:08:58.202Z,56.92
2022-09-28T23:11:28.033Z,57.19
2022-09-28T23:13:58.700Z,56.83
2022-09-28T23:16:27.656Z,56.70
2022-09-28T23:18:56.934Z,56.92
2022-09-28T23:21:26.647Z,56.87
2022-09-28T23:23:57.121Z,56.99
2022-09-28T23:26:30.174Z,57.04
2022-09-28T23:28:59.109Z,56.79
2022-09-28T23:31:29.046Z,57.03
2022-09-28T23:34:01.493Z,56.79
2022-09-28T23:36:29.932Z,56.81
2022-09-28T23:38:59.054Z,56.91
2022-09-28T23:41:28.957Z,56.95
2022-09-28T23:43:57.087Z,56.99
2022-09-28T23:46:26.026Z,57.15
2022-09-28T23:48:54.093Z,57.31
2022-09-28T23:51:22.235Z,57.57
2022-09-28T23:53:50.767Z,57.16
2022-09-28T23:56:18.919Z,57.27
2022-09-28T23:58:49.147Z,57.35
